createdAt,value
2018-05-27T00:00:20.896Z,90.66
2018-05-27T00:01:30.890Z,91.13
2018-05-27T00:02:40.872Z,91.23
2018-05-27T00:03:50.593Z,91.71
2018-05-27T00:05:00.309Z,91.52
2018-05-27T00:06:10.019Z,91.96
2018-05-27T00:07:19.739Z,92.53
2018-05-27T00:08:29.765Z,93.01
2018-05-27T00:09:39.749Z,92.91
2018-05-27T00:10:49.740Z,93.49
2018-05-27T00:11:59.724Z,93.68
2018-05-27T00:13:09.688Z,93.87
2018-05-27T00:14:19.678Z,93.77
2018-05-27T00:15:29.135Z,93.73
2018-05-27T00:16:38.590Z,93.54
2018-05-27T00:17:48.306Z,93.63
2018-05-27T00:18:58.294Z,93.68
2018-05-27T00:20:08.270Z,93.92
2018-05-27T00:21:18.262Z,93.44
2018-05-27T00:22:28.230Z,94.02
2018-05-27T00:23:37.701Z,93.54
2018-05-27T00:24:47.164Z,93.44
2018-05-27T00:25:57.143Z,93.63
2018-05-27T00:27:07.120Z,93.39
2018-05-27T00:28:17.105Z,93.63
2018-05-27T00:29:27.098Z,93.44
2018-05-27T00:30:37.081Z,93.44
2018-05-27T00:31:47.064Z,93.3
2018-05-27T00:32:57.097Z,93.54
2018-05-27T00:34:07.081Z,93.63
2018-05-27T00:35:17.038Z,93.63
2018-05-27T00:36:27.104Z,93.92
2018-05-27T00:37:36.811Z,93.92
2018-05-27T00:38:46.776Z,94.12
2018-05-27T00:39:56.495Z,93.63
2018-05-27T00:41:06.495Z,93.92
2018-05-27T00:42:16.529Z,93.92
2018-05-27T00:43:26.513Z,93.92
2018-05-27T00:44:36.484Z,94.12
2018-05-27T00:45:46.204Z,93.92
2018-05-27T00:46:55.932Z,94.49
2018-05-27T00:48:05.904Z,94.4
2018-05-27T00:49:15.879Z,94.59
2018-05-27T00:50:25.869Z,95.07
2018-05-27T00:51:35.593Z,95.46
2018-05-27T00:52:45.571Z,95.6
2018-05-27T00:53:55.539Z,95.79
2018-05-27T00:55:05.270Z,95.79
2018-05-27T00:56:15.249Z,95.79
2018-05-27T00:57:25.223Z,96.13
2018-05-27T00:58:34.673Z,96.94
2018-05-27T00:59:44.646Z,96.56
2018-05-27T01:00:54.640Z,97.23
2018-05-27T01:02:04.384Z,97.52
2018-05-27T01:03:14.358Z,97.23
2018-05-27T01:04:24.072Z,97.33
2018-05-27T01:05:33.790Z,97.14
2018-05-27T01:06:43.773Z,97.23
2018-05-27T01:07:53.746Z,98
2018-05-27T01:09:03.473Z,98.48
2018-05-27T01:10:13.452Z,98.19
2018-05-27T01:11:23.440Z,98.38
2018-05-27T01:12:33.414Z,98.14
2018-05-27T01:13:43.384Z,98.24
2018-05-27T01:14:53.099Z,97.95
2018-05-27T01:16:02.810Z,97.95
2018-05-27T01:17:12.785Z,98.33
2018-05-27T01:18:22.776Z,98.72
2018-05-27T01:19:32.752Z,98.72
2018-05-27T01:20:42.725Z,98.33
2018-05-27T01:21:52.726Z,98.43
2018-05-27T01:23:02.443Z,98.52
2018-05-27T01:24:12.416Z,98.72
2018-05-27T01:25:22.384Z,98.91
2018-05-27T01:26:32.107Z,98.62
2018-05-27T01:27:41.824Z,98.62
2018-05-27T01:28:51.794Z,98.91
2018-05-27T01:30:01.790Z,98.91
2018-05-27T01:31:11.771Z,98.43
2018-05-27T01:32:21.760Z,98.91
2018-05-27T01:33:31.489Z,98.14
2018-05-27T01:34:41.458Z,98.86
2018-05-27T01:35:51.168Z,98.76
2018-05-27T01:37:01.146Z,98.67
2018-05-27T01:38:11.118Z,99.24
2018-05-27T01:39:21.096Z,99.34
2018-05-27T01:40:30.823Z,99.82
2018-05-27T01:41:40.539Z,99.34
2018-05-27T01:42:50.508Z,99.53
2018-05-27T01:44:00.235Z,99.99
2018-05-27T01:45:09.942Z,99.99
2018-05-27T01:46:19.659Z,99.99
2018-05-27T01:47:29.622Z,99.99
2018-05-27T01:48:39.347Z,99.99
2018-05-27T01:49:49.326Z,99.99
2018-05-27T01:50:59.303Z,99.99
2018-05-27T01:52:09.269Z,99.99
2018-05-27T01:53:19.245Z,99.99
2018-05-27T01:54:28.699Z,99.99
2018-05-27T01:55:38.408Z,99.99
2018-05-27T01:56:48.123Z,99.99
2018-05-27T01:57:57.835Z,99.99
2018-05-27T01:59:07.820Z,99.99
2018-05-27T02:00:17.539Z,99.99
2018-05-27T02:01:27.256Z,99.99
2018-05-27T02:02:37.270Z,99.99
2018-05-27T02:03:46.969Z,99.99
2018-05-27T02:04:56.675Z,99.99
2018-05-27T02:06:06.418Z,99.99
2018-05-27T02:07:16.399Z,99.99
2018-05-27T02:08:26.368Z,99.99
2018-05-27T02:09:36.338Z,99.99
2018-05-27T02:10:46.313Z,99.99
2018-05-27T02:11:56.034Z,99.99
2018-05-27T02:13:05.502Z,99.99
2018-05-27T02:14:15.482Z,99.99
2018-05-27T02:15:25.522Z,99.99
2018-05-27T02:16:35.235Z,99.99
2018-05-27T02:17:45.212Z,99.99
2018-05-27T02:18:55.070Z,99.99
2018-05-27T02:20:04.776Z,99.99
2018-05-27T02:21:14.752Z,99.99
2018-05-27T02:22:24.465Z,99.99
2018-05-27T02:23:34.437Z,99.99
2018-05-27T02:24:44.411Z,99.99
2018-05-27T02:25:54.393Z,99.99
2018-05-27T02:27:04.371Z,99.99
2018-05-27T02:28:14.351Z,99.99
2018-05-27T02:29:23.803Z,99.99
2018-05-27T02:30:33.802Z,99.99
2018-05-27T02:31:43.795Z,99.99
2018-05-27T02:32:53.826Z,99.99
2018-05-27T02:34:03.800Z,99.99
2018-05-27T02:35:13.532Z,99.99
2018-05-27T02:36:23.241Z,99.99
2018-05-27T02:37:33.241Z,99.99
2018-05-27T02:38:42.966Z,99.99
2018-05-27T02:39:52.945Z,99.99
2018-05-27T02:41:02.933Z,99.99
2018-05-27T02:42:12.929Z,99.99
2018-05-27T02:43:22.912Z,99.99
2018-05-27T02:44:32.896Z,99.99
2018-05-27T02:45:42.906Z,99.99
2018-05-27T02:46:52.886Z,99.99
2018-05-27T02:48:02.871Z,99.99
2018-05-27T02:49:12.619Z,99.99
2018-05-27T02:50:22.633Z,99.99
2018-05-27T02:51:32.347Z,99.99
2018-05-27T02:52:42.579Z,99.99
2018-05-27T02:53:52.298Z,99.99
2018-05-27T02:55:02.270Z,99.99
2018-05-27T02:56:11.731Z,99.99
2018-05-27T02:57:21.698Z,99.99
2018-05-27T02:58:31.404Z,99.99
2018-05-27T02:59:41.380Z,99.99
2018-05-27T03:00:51.092Z,99.99
2018-05-27T03:02:01.088Z,99.99
2018-05-27T03:03:10.815Z,99.99
2018-05-27T03:04:20.792Z,99.99
2018-05-27T03:05:30.768Z,99.99
2018-05-27T03:06:40.755Z,99.99
2018-05-27T03:07:50.736Z,99.99
2018-05-27T03:09:00.457Z,99.99
2018-05-27T03:10:10.434Z,99.99
2018-05-27T03:11:20.404Z,99.99
2018-05-27T03:12:30.377Z,99.99
2018-05-27T03:13:40.361Z,99.99
2018-05-27T03:14:50.570Z,99.99
2018-05-27T03:16:00.545Z,99.99
2018-05-27T03:17:10.263Z,99.99
2018-05-27T03:18:20.224Z,99.99
2018-05-27T03:19:30.195Z,99.99
2018-05-27T03:20:40.181Z,99.99
2018-05-27T03:21:49.900Z,99.99
2018-05-27T03:22:59.622Z,99.99
2018-05-27T03:24:09.354Z,99.99
2018-05-27T03:25:19.325Z,99.99
2018-05-27T03:26:29.283Z,99.99
2018-05-27T03:27:38.744Z,99.99
2018-05-27T03:28:48.721Z,99.99
2018-05-27T03:29:58.692Z,99.99
2018-05-27T03:31:08.676Z,99.99
2018-05-27T03:32:18.672Z,99.99
2018-05-27T03:33:28.384Z,99.99
2018-05-27T03:34:38.363Z,99.99
2018-05-27T03:35:48.083Z,99.99
2018-05-27T03:36:58.055Z,99.99
2018-05-27T03:38:08.017Z,99.99
2018-05-27T03:39:17.993Z,99.99
2018-05-27T03:40:27.964Z,99.99
2018-05-27T03:41:37.676Z,99.99
2018-05-27T03:42:47.136Z,99.99
2018-05-27T03:43:57.117Z,99.99
2018-05-27T03:45:07.092Z,99.99
2018-05-27T03:46:17.065Z,99.99
2018-05-27T03:47:26.795Z,99.99
2018-05-27T03:48:36.775Z,99.99
2018-05-27T03:49:46.749Z,99.99
2018-05-27T03:50:56.716Z,99.99
2018-05-27T03:52:06.710Z,99.99
2018-05-27T03:53:16.429Z,99.99
2018-05-27T03:54:26.413Z,99.99
2018-05-27T03:55:35.868Z,99.99
2018-05-27T03:56:45.320Z,99.99
2018-05-27T03:57:55.281Z,99.99
2018-05-27T03:59:05.005Z,99.99
2018-05-27T04:00:14.975Z,99.99
2018-05-27T04:01:24.685Z,99.99
2018-05-27T04:02:34.660Z,99.99
2018-05-27T04:03:44.362Z,99.99
2018-05-27T04:04:54.326Z,99.99
2018-05-27T04:06:04.321Z,99.99
2018-05-27T04:07:14.300Z,99.99
2018-05-27T04:08:24.017Z,99.99
2018-05-27T04:09:33.984Z,99.99
2018-05-27T04:10:44.051Z,99.99
2018-05-27T04:11:54.029Z,99.99
2018-05-27T04:13:04.002Z,99.99
2018-05-27T04:14:13.987Z,99.99
2018-05-27T04:15:23.457Z,99.99
2018-05-27T04:16:33.163Z,99.99
2018-05-27T04:17:42.877Z,99.99
2018-05-27T04:18:52.858Z,99.99
2018-05-27T04:20:02.830Z,99.99
2018-05-27T04:21:12.835Z,99.99
2018-05-27T04:22:22.810Z,99.99
2018-05-27T04:23:32.792Z,99.99
2018-05-27T04:24:42.768Z,99.99
2018-05-27T04:25:52.490Z,99.99
2018-05-27T04:27:02.458Z,99.99
2018-05-27T04:28:12.167Z,99.99
2018-05-27T04:29:21.907Z,99.99
2018-05-27T04:30:31.633Z,99.99
2018-05-27T04:31:41.618Z,99.99
2018-05-27T04:32:51.322Z,99.99
2018-05-27T04:34:01.292Z,99.99
2018-05-27T04:35:11.003Z,99.99
2018-05-27T04:36:20.976Z,99.99
2018-05-27T04:37:30.961Z,99.99
2018-05-27T04:38:40.676Z,99.99
2018-05-27T04:39:50.635Z,99.99
2018-05-27T04:41:00.345Z,99.99
2018-05-27T04:42:10.311Z,99.99
2018-05-27T04:43:20.025Z,99.99
2018-05-27T04:44:29.733Z,99.99
2018-05-27T04:45:39.448Z,99.99
2018-05-27T04:46:49.434Z,99.99
2018-05-27T04:47:59.167Z,99.99
2018-05-27T04:49:09.151Z,99.99
2018-05-27T04:50:18.863Z,99.99
2018-05-27T04:51:28.838Z,99.99
2018-05-27T04:52:38.556Z,99.99
2018-05-27T04:53:48.532Z,99.99
2018-05-27T04:54:58.248Z,99.99
2018-05-27T04:56:07.964Z,99.99
2018-05-27T04:57:17.937Z,99.99
2018-05-27T04:58:27.907Z,99.99
2018-05-27T04:59:37.671Z,99.99
2018-05-27T05:00:47.647Z,99.99
2018-05-27T05:01:57.621Z,99.99
2018-05-27T05:03:07.583Z,99.99
2018-05-27T05:04:17.300Z,99.99
2018-05-27T05:05:26.999Z,99.99
2018-05-27T05:06:36.717Z,99.99
2018-05-27T05:07:46.431Z,99.99
2018-05-27T05:08:56.147Z,99.99
2018-05-27T05:10:06.117Z,99.99
2018-05-27T05:11:16.098Z,99.99
2018-05-27T05:12:26.055Z,99.99
2018-05-27T05:13:36.029Z,99.99
2018-05-27T05:14:46.010Z,99.99
2018-05-27T05:15:56.119Z,99.99
2018-05-27T05:17:05.834Z,99.99
2018-05-27T05:18:15.808Z,99.99
2018-05-27T05:19:25.549Z,99.99
2018-05-27T05:20:35.264Z,99.99
2018-05-27T05:21:45.238Z,99.99
2018-05-27T05:22:54.961Z,99.99
2018-05-27T05:24:04.933Z,99.99
2018-05-27T05:25:14.644Z,99.99
2018-05-27T05:26:24.625Z,99.99
2018-05-27T05:27:34.617Z,99.99
2018-05-27T05:28:44.402Z,99.99
2018-05-27T05:29:54.364Z,99.99
2018-05-27T05:31:04.074Z,99.99
2018-05-27T05:32:14.064Z,99.99
2018-05-27T05:33:24.042Z,99.99
2018-05-27T05:34:33.767Z,99.99
2018-05-27T05:35:43.741Z,99.99
2018-05-27T05:36:53.732Z,99.99
2018-05-27T05:38:03.456Z,99.99
2018-05-27T05:39:13.170Z,99.99
2018-05-27T05:40:22.940Z,99.99
2018-05-27T05:41:32.920Z,99.99
2018-05-27T05:42:42.901Z,99.99
2018-05-27T05:43:52.614Z,99.99
2018-05-27T05:45:02.591Z,99.99
2018-05-27T05:46:12.299Z,99.99
2018-05-27T05:47:22.273Z,99.99
2018-05-27T05:48:32.258Z,99.99
2018-05-27T05:49:42.245Z,99.99
2018-05-27T05:50:51.955Z,99.99
2018-05-27T05:52:01.921Z,99.99
2018-05-27T05:53:11.646Z,99.99
2018-05-27T05:54:21.637Z,99.99
2018-05-27T05:55:31.612Z,99.99
2018-05-27T05:56:41.575Z,99.99
2018-05-27T05:57:51.547Z,99.99
2018-05-27T05:59:01.518Z,99.99
2018-05-27T06:00:11.501Z,99.99
2018-05-27T06:01:21.478Z,99.99
2018-05-27T06:02:31.204Z,99.99
2018-05-27T06:03:40.921Z,99.99
2018-05-27T06:04:50.893Z,99.73
2018-05-27T06:06:00.862Z,99.44
2018-05-27T06:07:10.846Z,99.25
2018-05-27T06:08:20.825Z,98.58
2018-05-27T06:09:30.803Z,98.19
2018-05-27T06:10:40.782Z,98.38
2018-05-27T06:11:50.758Z,98.58
2018-05-27T06:13:00.740Z,98.72
2018-05-27T06:14:09.936Z,98.43
2018-05-27T06:15:19.636Z,98.24
2018-05-27T06:16:29.354Z,97.66
2018-05-27T06:17:38.814Z,97.47
2018-05-27T06:18:48.528Z,97.47
2018-05-27T06:19:58.505Z,97.19
2018-05-27T06:21:08.231Z,97.28
2018-05-27T06:22:17.944Z,96.61
2018-05-27T06:23:27.949Z,97.04
2018-05-27T06:24:37.956Z,96.47
2018-05-27T06:25:47.767Z,97.04
2018-05-27T06:26:57.801Z,96.37
2018-05-27T06:28:07.773Z,95.98
2018-05-27T06:29:17.752Z,95.5
2018-05-27T06:30:27.732Z,95.12
2018-05-27T06:31:37.460Z,94.54
2018-05-27T06:32:47.178Z,94.73
2018-05-27T06:33:56.896Z,94.93
2018-05-27T06:35:06.618Z,94.54
2018-05-27T06:36:16.603Z,94.21
2018-05-27T06:37:26.590Z,93.91
2018-05-27T06:38:36.296Z,93.91
2018-05-27T06:39:46.382Z,93.73
2018-05-27T06:40:56.123Z,93.15
2018-05-27T06:42:05.844Z,93.24
2018-05-27T06:43:15.580Z,92.76
2018-05-27T06:44:25.603Z,93.05
2018-05-27T06:45:35.060Z,92.67
2018-05-27T06:46:45.034Z,92.43
2018-05-27T06:47:54.764Z,92.13
2018-05-27T06:49:04.475Z,92.43
2018-05-27T06:50:14.443Z,92.13
2018-05-27T06:51:24.415Z,91.56
2018-05-27T06:52:34.386Z,91.36
2018-05-27T06:53:44.361Z,91.08
2018-05-27T06:54:54.345Z,90.59
2018-05-27T06:56:04.077Z,90.59
2018-05-27T06:57:14.052Z,89.97
2018-05-27T06:58:24.032Z,90.35
2018-05-27T06:59:33.763Z,90.16
2018-05-27T07:00:43.750Z,89.78
2018-05-27T07:01:53.729Z,89.58
2018-05-27T07:03:03.706Z,88.91
2018-05-27T07:04:13.426Z,88.81
2018-05-27T07:05:23.416Z,88.95
2018-05-27T07:06:33.390Z,88.95
2018-05-27T07:07:43.113Z,88.38
2018-05-27T07:08:53.088Z,87.8
2018-05-27T07:10:03.115Z,87.12
2018-05-27T07:11:13.109Z,87.12
2018-05-27T07:12:22.819Z,86.74
2018-05-27T07:13:32.808Z,86.45
2018-05-27T07:14:42.824Z,86.59
2018-05-27T07:15:52.566Z,83.99
2018-05-27T07:17:02.582Z,82.93
2018-05-27T07:18:12.860Z,83.31
2018-05-27T07:19:22.857Z,82.54
2018-05-27T07:20:32.837Z,82.16
2018-05-27T07:21:42.558Z,81.43
2018-05-27T07:22:52.548Z,80.08
2018-05-27T07:24:02.598Z,78.83
2018-05-27T07:25:11.806Z,78.63
2018-05-27T07:26:21.779Z,78.83
2018-05-27T07:27:31.762Z,79.69
2018-05-27T07:28:41.743Z,78.48
2018-05-27T07:29:51.729Z,78.19
2018-05-27T07:31:01.712Z,78.48
2018-05-27T07:32:11.773Z,77.71
2018-05-27T07:33:21.889Z,76.93
2018-05-27T07:34:31.961Z,76.68
2018-05-27T07:35:42.073Z,76.98
2018-05-27T07:36:52.069Z,75.92
2018-05-27T07:38:02.053Z,74.27
2018-05-27T07:39:12.047Z,75.05
2018-05-27T07:40:22.121Z,74.08
2018-05-27T07:41:31.794Z,74.18
2018-05-27T07:42:41.801Z,73.44
2018-05-27T07:43:51.536Z,72.67
2018-05-27T07:45:01.258Z,72.28
2018-05-27T07:46:11.239Z,72
2018-05-27T07:47:21.249Z,71.51
2018-05-27T07:48:31.238Z,70.94
2018-05-27T07:49:41.268Z,71.42
2018-05-27T07:50:51.003Z,72.28
2018-05-27T07:52:00.463Z,71.7
2018-05-27T07:53:10.172Z,71.51
2018-05-27T07:54:19.896Z,72.09
2018-05-27T07:55:29.910Z,71.22
2018-05-27T07:56:39.903Z,70.84
2018-05-27T07:57:49.896Z,69.62
2018-05-27T07:58:59.884Z,68.46
2018-05-27T08:00:09.593Z,68.94
2018-05-27T08:01:19.336Z,69.04
2018-05-27T08:02:29.336Z,68.36
2018-05-27T08:03:39.098Z,69.04
2018-05-27T08:04:49.129Z,67.97
2018-05-27T08:05:59.114Z,68.01
2018-05-27T08:07:09.184Z,68.55
2018-05-27T08:08:19.411Z,68.17
2018-05-27T08:09:29.389Z,67.49
2018-05-27T08:10:39.363Z,66.85
2018-05-27T08:11:49.079Z,66.08
2018-05-27T08:12:58.825Z,66.85
2018-05-27T08:14:08.539Z,66.11
2018-05-27T08:15:18.265Z,65.82
2018-05-27T08:16:28.259Z,65.63
2018-05-27T08:17:38.271Z,65.82
2018-05-27T08:18:47.989Z,64.95
2018-05-27T08:19:58.049Z,64.56
2018-05-27T08:21:08.261Z,63.98
2018-05-27T08:22:18.252Z,63.11
2018-05-27T08:23:27.991Z,62.27
2018-05-27T08:24:38.001Z,61.89
2018-05-27T08:25:47.739Z,62.37
2018-05-27T08:26:57.712Z,62.27
2018-05-27T08:28:07.703Z,62.18
2018-05-27T08:29:17.692Z,62.66
2018-05-27T08:30:27.669Z,62.5
2018-05-27T08:31:37.412Z,63.18
2018-05-27T08:32:47.395Z,62.3
2018-05-27T08:33:57.373Z,61.08
2018-05-27T08:35:06.633Z,60.69
2018-05-27T08:36:16.725Z,60.3
2018-05-27T08:37:26.714Z,59.56
2018-05-27T08:38:36.462Z,58.91
2018-05-27T08:39:46.198Z,58.23
2018-05-27T08:40:56.201Z,56.61
2018-05-27T08:42:05.932Z,55.02
2018-05-27T08:43:15.910Z,53.88
2018-05-27T08:44:25.965Z,53.71
2018-05-27T08:45:35.962Z,53.22
2018-05-27T08:46:45.940Z,53.16
2018-05-27T08:47:55.707Z,52.28
2018-05-27T08:49:05.782Z,52.67
2018-05-27T08:50:15.809Z,51.82
2018-05-27T08:51:25.803Z,51.43
2018-05-27T08:52:35.797Z,50.56
2018-05-27T08:53:45.782Z,50.48
2018-05-27T08:54:55.515Z,49.44
2018-05-27T08:56:05.519Z,48.85
2018-05-27T08:57:15.577Z,48.49
2018-05-27T08:58:25.779Z,47.34
2018-05-27T08:59:35.794Z,46.78
2018-05-27T09:00:45.789Z,46.49
2018-05-27T09:01:55.784Z,45.81
2018-05-27T09:03:05.792Z,44.29
2018-05-27T09:04:15.792Z,43.22
2018-05-27T09:05:25.516Z,43.04
2018-05-27T09:06:35.516Z,43.16
2018-05-27T09:07:45.252Z,43.26
2018-05-27T09:08:55.063Z,42.87
2018-05-27T09:10:05.005Z,42.19
2018-05-27T09:11:14.988Z,43.33
2018-05-27T09:12:24.979Z,44.66
2018-05-27T09:13:34.739Z,45.12
2018-05-27T09:14:44.722Z,44.54
2018-05-27T09:15:54.485Z,44.34
2018-05-27T09:17:04.237Z,44.37
2018-05-27T09:18:14.254Z,43.99
2018-05-27T09:19:24.243Z,43.02
2018-05-27T09:20:34.236Z,42.34
2018-05-27T09:21:43.962Z,41.87
2018-05-27T09:22:53.966Z,43.04
2018-05-27T09:24:03.955Z,44.17
2018-05-27T09:25:14.077Z,44.62
2018-05-27T09:26:24.074Z,44.34
2018-05-27T09:27:33.813Z,44.54
2018-05-27T09:28:43.842Z,43.98
2018-05-27T09:29:53.577Z,45.12
2018-05-27T09:31:03.566Z,45.03
2018-05-27T09:32:13.564Z,44.27
2018-05-27T09:33:23.305Z,42.63
2018-05-27T09:34:33.036Z,42.14
2018-05-27T09:35:42.785Z,42.73
2018-05-27T09:36:52.806Z,43
2018-05-27T09:38:02.558Z,43.59
2018-05-27T09:39:12.637Z,43.85
2018-05-27T09:40:22.538Z,43.18
2018-05-27T09:41:32.526Z,42.61
2018-05-27T09:42:42.264Z,41.77
2018-05-27T09:43:52.258Z,40.82
2018-05-27T09:45:02.326Z,39.96
2018-05-27T09:46:12.110Z,39.29
2018-05-27T09:47:22.121Z,39.2
2018-05-27T09:48:32.132Z,39.02
2018-05-27T09:49:41.862Z,38.45
2018-05-27T09:50:51.858Z,38.06
2018-05-27T09:52:01.916Z,39.04
2018-05-27T09:53:11.393Z,37.77
2018-05-27T09:54:21.130Z,37.19
2018-05-27T09:55:31.359Z,36.63
2018-05-27T09:56:41.347Z,36.63
2018-05-27T09:57:51.525Z,36.14
2018-05-27T09:59:01.647Z,36.16
2018-05-27T10:00:11.393Z,36.53
2018-05-27T10:01:21.393Z,36.92
2018-05-27T10:02:31.379Z,36.71
2018-05-27T10:03:41.110Z,35.35
2018-05-27T10:04:51.114Z,34.7
2018-05-27T10:06:01.106Z,33.54
2018-05-27T10:07:11.111Z,33.77
2018-05-27T10:08:21.120Z,33.38
2018-05-27T10:09:30.873Z,34.83
2018-05-27T10:10:40.881Z,34.8
2018-05-27T10:11:50.973Z,34.9
2018-05-27T10:13:01.000Z,35.17
2018-05-27T10:14:10.985Z,34.8
2018-05-27T10:15:20.728Z,33.72
2018-05-27T10:16:30.744Z,34.23
2018-05-27T10:17:40.252Z,33.17
2018-05-27T10:18:50.267Z,32.5
2018-05-27T10:20:00.424Z,32.59
2018-05-27T10:21:10.410Z,33.25
2018-05-27T10:22:20.431Z,33.7
2018-05-27T10:23:29.897Z,33.82
2018-05-27T10:24:39.889Z,33.92
2018-05-27T10:25:50.053Z,34.41
2018-05-27T10:27:00.334Z,36.04
2018-05-27T10:28:10.323Z,35.91
2018-05-27T10:29:20.336Z,36.28
2018-05-27T10:30:30.329Z,36.28
2018-05-27T10:31:40.334Z,36
2018-05-27T10:32:50.365Z,35.34
2018-05-27T10:34:00.327Z,34.67
2018-05-27T10:35:10.318Z,34.69
2018-05-27T10:36:20.316Z,36.02
2018-05-27T10:37:30.328Z,35.83
2018-05-27T10:38:40.331Z,34.96
2018-05-27T10:39:50.346Z,34.69
2018-05-27T10:41:00.365Z,33.72
2018-05-27T10:42:10.354Z,33.54
2018-05-27T10:43:19.858Z,33.92
2018-05-27T10:44:29.856Z,34.11
2018-05-27T10:45:39.846Z,34.98
2018-05-27T10:46:49.838Z,34.96
2018-05-27T10:47:59.856Z,35.25
2018-05-27T10:49:09.855Z,35.14
2018-05-27T10:50:19.889Z,35.44
2018-05-27T10:51:29.887Z,35.04
2018-05-27T10:52:39.879Z,35.14
2018-05-27T10:53:49.877Z,34.75
2018-05-27T10:54:59.888Z,33.7
2018-05-27T10:56:09.885Z,34.13
2018-05-27T10:57:19.889Z,33.8
2018-05-27T10:58:29.620Z,33.23
2018-05-27T10:59:39.343Z,32.76
2018-05-27T11:00:49.356Z,31.81
2018-05-27T11:01:59.099Z,31.05
2018-05-27T11:03:08.852Z,31.36
2018-05-27T11:04:18.871Z,31.05
2018-05-27T11:05:28.888Z,30.68
2018-05-27T11:06:38.704Z,31.46
2018-05-27T11:07:48.199Z,32.98
2018-05-27T11:08:58.203Z,33.54
2018-05-27T11:10:07.947Z,33.8
2018-05-27T11:11:17.943Z,34.18
2018-05-27T11:12:27.945Z,34.55
2018-05-27T11:13:37.944Z,34.93
2018-05-27T11:14:47.938Z,35.22
2018-05-27T11:15:57.942Z,35.03
2018-05-27T11:17:07.934Z,34.65
2018-05-27T11:18:17.931Z,34.86
2018-05-27T11:19:27.941Z,33.8
2018-05-27T11:20:37.968Z,33.04
2018-05-27T11:21:48.173Z,32.09
2018-05-27T11:22:58.213Z,30.35
2018-05-27T11:24:08.224Z,29.99
2018-05-27T11:25:17.959Z,30
2018-05-27T11:26:27.973Z,29.43
2018-05-27T11:27:37.988Z,28.75
2018-05-27T11:28:47.997Z,27.89
2018-05-27T11:29:58.184Z,27.62
2018-05-27T11:31:07.988Z,28.31
2018-05-27T11:32:17.984Z,29.55
2018-05-27T11:33:27.709Z,30.19
2018-05-27T11:34:37.706Z,29.69
2018-05-27T11:35:47.708Z,29.9
2018-05-27T11:36:57.789Z,30.08
2018-05-27T11:38:07.651Z,30.38
2018-05-27T11:39:17.639Z,29.99
2018-05-27T11:40:27.629Z,29.69
2018-05-27T11:41:37.627Z,29.69
2018-05-27T11:42:47.633Z,29.11
2018-05-27T11:43:57.389Z,28.82
2018-05-27T11:45:07.120Z,28.72
2018-05-27T11:46:17.116Z,27.85
2018-05-27T11:47:26.846Z,28.05
2018-05-27T11:48:36.945Z,28.14
2018-05-27T11:49:47.130Z,28.82
2018-05-27T11:50:56.886Z,30.15
2018-05-27T11:52:06.624Z,30.32
2018-05-27T11:53:16.626Z,31.1
2018-05-27T11:54:26.381Z,30.3
2018-05-27T11:55:36.382Z,30.01
2018-05-27T11:56:46.382Z,30.62
2018-05-27T11:57:56.123Z,30.22
2018-05-27T11:59:06.137Z,29.94
2018-05-27T12:00:15.872Z,29.64
2018-05-27T12:01:25.350Z,28.67
2018-05-27T12:02:35.348Z,28.88
2018-05-27T12:03:45.093Z,28.68
2018-05-27T12:04:54.844Z,28.78
2018-05-27T12:06:04.832Z,28.89
2018-05-27T12:07:14.833Z,29.66
2018-05-27T12:08:24.562Z,30.43
2018-05-27T12:09:34.913Z,31.5
2018-05-27T12:10:45.942Z,32.25
2018-05-27T12:11:55.941Z,33.87
2018-05-27T12:13:05.917Z,33.54
2018-05-27T12:14:15.928Z,32.34
2018-05-27T12:15:25.950Z,33.77
2018-05-27T12:16:35.947Z,35.59
2018-05-27T12:17:45.685Z,37.6
2018-05-27T12:18:55.704Z,43.79
2018-05-27T12:20:05.434Z,53.79
2018-05-27T12:21:15.441Z,53.38
2018-05-27T12:22:25.448Z,55.55
2018-05-27T12:23:35.455Z,56.4
2018-05-27T12:24:45.445Z,57.34
2018-05-27T12:25:55.463Z,58.65
2018-05-27T12:27:05.464Z,62.33
2018-05-27T12:28:15.493Z,59.3
2018-05-27T12:29:25.504Z,54.16
2018-05-27T12:30:34.967Z,53.19
2018-05-27T12:31:44.968Z,49.99
2018-05-27T12:32:54.698Z,49.22
2018-05-27T12:34:04.703Z,49.22
2018-05-27T12:35:14.446Z,50.67
2018-05-27T12:36:24.183Z,50.99
2018-05-27T12:37:34.173Z,51.18
2018-05-27T12:38:43.917Z,48.47
2018-05-27T12:39:53.910Z,50.6
2018-05-27T12:41:03.885Z,48.2
2018-05-27T12:42:13.673Z,47.23
2018-05-27T12:43:23.658Z,45.48
2018-05-27T12:44:33.634Z,45.68
2018-05-27T12:45:43.137Z,47.45
2018-05-27T12:46:53.156Z,49.19
2018-05-27T12:48:02.639Z,47.47
2018-05-27T12:49:12.651Z,47.86
2018-05-27T12:50:22.366Z,47.69
2018-05-27T12:51:31.845Z,48.37
2018-05-27T12:52:41.849Z,47.2
2018-05-27T12:53:51.562Z,47.59
2018-05-27T12:55:01.302Z,48.37
2018-05-27T12:56:11.031Z,47.71
2018-05-27T12:57:21.015Z,47.23
2018-05-27T12:58:31.015Z,47.32
2018-05-27T12:59:40.997Z,46.06
2018-05-27T13:00:51.003Z,45.31
2018-05-27T13:02:00.738Z,45.6
2018-05-27T13:03:10.722Z,45.21
2018-05-27T13:04:20.190Z,45.89
2018-05-27T13:05:30.173Z,45.42
2018-05-27T13:06:39.994Z,44.06
2018-05-27T13:07:49.997Z,44.18
2018-05-27T13:08:59.737Z,44.57
2018-05-27T13:10:09.736Z,43.79
2018-05-27T13:11:19.472Z,44.09
2018-05-27T13:12:29.469Z,42.55
2018-05-27T13:13:39.458Z,42.25
2018-05-27T13:14:49.456Z,42.94
2018-05-27T13:15:59.205Z,42.08
2018-05-27T13:17:08.940Z,41.99
2018-05-27T13:18:18.955Z,41.3
2018-05-27T13:19:28.689Z,40.73
2018-05-27T13:20:38.438Z,40.66
2018-05-27T13:21:48.174Z,40.86
2018-05-27T13:22:58.178Z,39.9
2018-05-27T13:24:08.205Z,38.73
2018-05-27T13:25:18.196Z,38.06
2018-05-27T13:26:28.180Z,39.06
2018-05-27T13:27:38.176Z,38.57
2018-05-27T13:28:47.926Z,39.26
2018-05-27T13:29:57.717Z,40.92
2018-05-27T13:31:07.676Z,39.84
2018-05-27T13:32:17.406Z,38.35
2018-05-27T13:33:27.149Z,39.02
2018-05-27T13:34:36.895Z,39.78
2018-05-27T13:35:46.657Z,39.75
2018-05-27T13:36:56.644Z,39.84
2018-05-27T13:38:06.637Z,40.83
2018-05-27T13:39:16.376Z,42.3
2018-05-27T13:40:26.130Z,40.86
2018-05-27T13:41:36.136Z,39.7
2018-05-27T13:42:46.133Z,40.6
2018-05-27T13:43:56.128Z,39.9
2018-05-27T13:45:06.008Z,40.11
2018-05-27T13:46:15.998Z,38.67
2018-05-27T13:47:25.739Z,38.28
2018-05-27T13:48:35.502Z,36.93
2018-05-27T13:49:45.498Z,36.85
2018-05-27T13:50:55.509Z,36.85
2018-05-27T13:52:05.489Z,36.46
2018-05-27T13:53:15.253Z,34.91
2018-05-27T13:54:24.988Z,34.83
2018-05-27T13:55:34.558Z,35.03
2018-05-27T13:56:44.543Z,34.75
2018-05-27T13:57:54.304Z,35.83
2018-05-27T13:59:04.299Z,35.81
2018-05-27T14:00:14.413Z,36.1
2018-05-27T14:01:24.293Z,36.1
2018-05-27T14:02:34.284Z,35.61
2018-05-27T14:03:44.005Z,34.83
2018-05-27T14:04:53.724Z,35.81
2018-05-27T14:06:03.850Z,36.1
2018-05-27T14:07:13.704Z,36.2
2018-05-27T14:08:23.442Z,36.18
2018-05-27T14:09:33.486Z,36.28
2018-05-27T14:10:42.957Z,36.36
2018-05-27T14:11:52.940Z,36.54
2018-05-27T14:13:02.932Z,35.66
2018-05-27T14:14:12.936Z,35.64
2018-05-27T14:15:22.920Z,36.82
2018-05-27T14:16:32.978Z,36.82
2018-05-27T14:17:42.984Z,36.91
2018-05-27T14:18:52.992Z,36.52
2018-05-27T14:20:02.992Z,36.6
2018-05-27T14:21:12.995Z,36.9
2018-05-27T14:22:22.724Z,36.9
2018-05-27T14:23:32.711Z,36.78
2018-05-27T14:24:42.691Z,37.75
2018-05-27T14:25:52.433Z,37.83
2018-05-27T14:27:02.439Z,38.51
2018-05-27T14:28:12.424Z,38.71
2018-05-27T14:29:22.405Z,39.57
2018-05-27T14:30:32.398Z,39.86
2018-05-27T14:31:42.401Z,39.86
2018-05-27T14:32:52.409Z,40.73
2018-05-27T14:34:02.437Z,40.93
2018-05-27T14:35:12.160Z,41.32
2018-05-27T14:36:22.151Z,41.71
2018-05-27T14:37:32.136Z,42.3
2018-05-27T14:38:41.608Z,42.86
2018-05-27T14:39:51.091Z,43.25
2018-05-27T14:41:01.084Z,44.2
2018-05-27T14:42:10.835Z,44.3
2018-05-27T14:43:20.845Z,44.69
2018-05-27T14:44:30.574Z,44.98
2018-05-27T14:45:40.609Z,45.86
2018-05-27T14:46:50.627Z,45.57
2018-05-27T14:48:00.603Z,45.47
2018-05-27T14:49:10.603Z,45.08
2018-05-27T14:50:20.579Z,45.57
2018-05-27T14:51:30.348Z,45.57
2018-05-27T14:52:40.332Z,45.86
2018-05-27T14:53:50.323Z,45.67
2018-05-27T14:55:00.071Z,46.34
2018-05-27T14:56:10.075Z,46.64
2018-05-27T14:57:19.569Z,46.05
2018-05-27T14:58:29.292Z,46.73
2018-05-27T14:59:39.316Z,45.95
2018-05-27T15:00:49.294Z,47.03
2018-05-27T15:01:59.031Z,47.2